createdAt,value
2023-02-11T00:00:13.022Z,5.22
2023-02-11T00:02:39.800Z,3.88
2023-02-11T00:05:06.707Z,4.25
2023-02-11T00:07:33.681Z,4.63
2023-02-11T00:10:00.431Z,4.43
2023-02-11T00:12:27.303Z,3.95
2023-02-11T00:14:54.112Z,3.60
2023-02-11T00:17:20.870Z,3.78
2023-02-11T00:19:51.702Z,4.30
2023-02-11T00:22:18.631Z,3.90
2023-02-11T00:24:45.560Z,4.25
2023-02-11T00:27:12.311Z,3.88
2023-02-11T00:29:39.136Z,3.95
2023-02-11T00:32:06.070Z,3.22
2023-02-11T00:34:33.070Z,4.18
2023-02-11T00:36:59.894Z,4.97
2023-02-11T00:39:26.693Z,4.55
2023-02-11T00:41:53.429Z,3.40
2023-02-11T00:44:20.138Z,3.70
2023-02-11T00:46:46.905Z,4.38
2023-02-11T00:49:13.670Z,3.90
2023-02-11T00:51:40.470Z,3.65
2023-02-11T00:54:07.444Z,4.20
2023-02-11T00:56:34.252Z,3.72
2023-02-11T00:59:01.037Z,4.13
2023-02-11T01:01:27.906Z,4.32
2023-02-11T01:03:54.825Z,3.35
2023-02-11T01:06:21.620Z,3.67
2023-02-11T01:08:48.397Z,5.00
2023-02-11T01:11:19.478Z,4.30
2023-02-11T01:13:46.978Z,3.78
2023-02-11T01:16:13.987Z,5.07
2023-02-11T01:18:41.975Z,5.90
2023-02-11T01:21:08.783Z,2.67
2023-02-11T01:23:35.509Z,4.88
2023-02-11T01:26:02.246Z,5.05
2023-02-11T01:28:29.552Z,4.28
2023-02-11T01:30:56.403Z,4.22
2023-02-11T01:33:23.406Z,3.63
2023-02-11T01:35:50.660Z,4.13
2023-02-11T01:38:22.281Z,6.60
2023-02-11T01:40:50.166Z,5.00
2023-02-11T01:43:16.970Z,5.90
2023-02-11T01:45:49.705Z,3.83
2023-02-11T01:48:20.506Z,4.50
2023-02-11T01:50:48.156Z,3.95
2023-02-11T01:53:33.327Z,3.95
2023-02-11T01:56:18.574Z,4.50
2023-02-11T01:58:45.520Z,4.05
2023-02-11T02:01:14.426Z,3.75
2023-02-11T02:03:42.257Z,4.22
2023-02-11T02:06:22.707Z,4.60
2023-02-11T02:08:55.648Z,4.50
2023-02-11T02:11:22.528Z,4.30
2023-02-11T02:13:49.328Z,4.18
2023-02-11T02:16:18.031Z,5.95
2023-02-11T02:18:59.884Z,3.65
2023-02-11T02:21:32.123Z,3.15
2023-02-11T02:24:04.769Z,4.25
2023-02-11T02:27:13.341Z,3.92
2023-02-11T02:30:07.830Z,3.63
2023-02-11T02:32:54.828Z,3.85
2023-02-11T02:35:26.737Z,3.75
2023-02-11T02:38:11.332Z,4.00
2023-02-11T02:40:55.003Z,3.08
2023-02-11T02:43:21.987Z,4.20
2023-02-11T02:45:49.141Z,3.70
2023-02-11T02:48:33.089Z,3.28
2023-02-11T02:51:31.918Z,2.92
2023-02-11T02:54:01.129Z,4.70
2023-02-11T02:56:41.145Z,2.88
2023-02-11T02:59:10.735Z,5.32
2023-02-11T03:01:56.171Z,3.45
2023-02-11T03:04:39.430Z,3.90
2023-02-11T03:07:15.004Z,3.90
2023-02-11T03:09:59.501Z,2.90
2023-02-11T03:12:27.734Z,3.80
2023-02-11T03:14:54.795Z,3.80
2023-02-11T03:17:21.768Z,3.90
2023-02-11T03:19:48.583Z,4.65
2023-02-11T03:22:26.569Z,4.00
2023-02-11T03:24:53.397Z,5.60
2023-02-11T03:27:33.386Z,3.13
2023-02-11T03:30:13.372Z,3.80
2023-02-11T03:32:41.971Z,2.85
2023-02-11T03:35:15.990Z,3.75
2023-02-11T03:37:44.021Z,3.30
2023-02-11T03:40:13.101Z,3.53
2023-02-11T03:42:58.609Z,4.22
2023-02-11T03:45:25.379Z,3.28
2023-02-11T03:48:02.457Z,3.40
2023-02-11T03:50:30.352Z,3.83
2023-02-11T03:52:57.166Z,3.80
2023-02-11T03:55:25.949Z,3.55
2023-02-11T03:57:52.628Z,3.33
2023-02-11T04:00:19.384Z,3.28
2023-02-11T04:02:46.232Z,2.85
2023-02-11T04:05:15.308Z,5.90
2023-02-11T04:07:42.084Z,4.13
2023-02-11T04:10:09.039Z,3.42
2023-02-11T04:12:35.917Z,3.42
2023-02-11T04:15:02.731Z,3.58
2023-02-11T04:17:29.444Z,3.63
2023-02-11T04:19:56.213Z,4.10
2023-02-11T04:22:22.973Z,3.33
2023-02-11T04:24:49.752Z,3.08
2023-02-11T04:27:16.599Z,5.95
2023-02-11T04:29:43.393Z,3.42
2023-02-11T04:32:11.386Z,4.22
2023-02-11T04:34:38.294Z,3.83
2023-02-11T04:37:05.029Z,3.92
2023-02-11T04:39:31.766Z,3.40
2023-02-11T04:41:58.484Z,3.50
2023-02-11T04:44:25.271Z,3.78
2023-02-11T04:46:51.987Z,3.80
2023-02-11T04:49:18.999Z,3.70
2023-02-11T04:51:48.279Z,3.78
2023-02-11T04:54:16.092Z,4.00
2023-02-11T04:56:42.837Z,3.55
2023-02-11T04:59:09.705Z,3.50
2023-02-11T05:01:36.502Z,3.40
2023-02-11T05:04:03.400Z,3.85
2023-02-11T05:06:30.131Z,3.80
2023-02-11T05:08:56.973Z,4.00
2023-02-11T05:11:24.576Z,3.60
2023-02-11T05:13:51.390Z,4.63
2023-02-11T05:16:18.429Z,4.93
2023-02-11T05:18:45.399Z,3.75
2023-02-11T05:21:17.233Z,3.33
2023-02-11T05:23:44.162Z,3.70
2023-02-11T05:26:11.376Z,4.05
2023-02-11T05:28:38.600Z,3.85
2023-02-11T05:31:05.579Z,3.53
2023-02-11T05:33:32.500Z,3.70
2023-02-11T05:36:04.115Z,3.40
2023-02-11T05:38:30.864Z,3.63
2023-02-11T05:40:57.652Z,3.17
2023-02-11T05:43:24.375Z,4.15
2023-02-11T05:45:51.406Z,3.22
2023-02-11T05:48:18.413Z,3.65
2023-02-11T05:50:45.318Z,3.47
2023-02-11T05:53:12.173Z,3.22
2023-02-11T05:55:39.188Z,5.00
2023-02-11T05:58:06.252Z,4.05
2023-02-11T06:00:33.176Z,3.65
2023-02-11T06:02:59.946Z,3.67
2023-02-11T06:05:26.757Z,3.70
2023-02-11T06:07:53.647Z,3.65
2023-02-11T06:10:20.571Z,3.65
2023-02-11T06:12:47.327Z,3.33
2023-02-11T06:15:14.096Z,5.35
2023-02-11T06:17:40.812Z,5.20
2023-02-11T06:20:08.646Z,5.45
2023-02-11T06:22:35.518Z,8.05
2023-02-11T06:25:02.587Z,7.75
2023-02-11T06:27:29.767Z,7.63
2023-02-11T06:29:56.544Z,7.57
2023-02-11T06:32:43.326Z,4.00
2023-02-11T06:35:12.051Z,4.32
2023-02-11T06:37:39.449Z,3.40
2023-02-11T06:40:06.566Z,5.55
2023-02-11T06:42:34.591Z,3.90
2023-02-11T06:45:01.430Z,5.93
2023-02-11T06:47:28.162Z,4.00
2023-02-11T06:49:54.916Z,4.00
2023-02-11T06:52:21.748Z,3.50
2023-02-11T06:54:48.648Z,3.63
2023-02-11T06:57:15.369Z,4.05
2023-02-11T06:59:42.089Z,5.22
2023-02-11T07:02:11.930Z,5.15
2023-02-11T07:04:38.810Z,5.40
2023-02-11T07:07:05.607Z,4.88
2023-02-11T07:09:32.404Z,3.88
2023-02-11T07:11:59.184Z,3.90
2023-02-11T07:14:25.968Z,4.50
2023-02-11T07:16:52.838Z,3.55
2023-02-11T07:19:19.619Z,4.13
2023-02-11T07:21:46.437Z,4.03
2023-02-11T07:24:13.206Z,7.20
2023-02-11T07:26:39.992Z,5.72
2023-02-11T07:29:06.715Z,4.45
2023-02-11T07:31:33.655Z,6.25
2023-02-11T07:34:01.491Z,4.80
2023-02-11T07:36:29.145Z,5.57
2023-02-11T07:38:55.915Z,5.57
2023-02-11T07:41:23.285Z,4.40
2023-02-11T07:43:50.081Z,6.13
2023-02-11T07:46:24.524Z,5.85
2023-02-11T07:48:51.350Z,8.40
2023-02-11T07:51:23.101Z,8.07
2023-02-11T07:53:49.995Z,8.40
2023-02-11T07:56:17.846Z,9.63
2023-02-11T07:58:44.591Z,8.50
2023-02-11T08:01:17.646Z,8.57
2023-02-11T08:03:44.487Z,7.57
2023-02-11T08:06:12.956Z,8.38
2023-02-11T08:08:39.981Z,5.90
2023-02-11T08:11:08.040Z,4.82
2023-02-11T08:13:35.053Z,5.30
2023-02-11T08:16:01.878Z,5.57
2023-02-11T08:18:28.605Z,4.63
2023-02-11T08:20:55.306Z,5.40
2023-02-11T08:23:22.040Z,5.07
2023-02-11T08:25:48.882Z,5.97
2023-02-11T08:28:15.620Z,4.35
2023-02-11T08:30:42.496Z,6.32
2023-02-11T08:33:09.259Z,5.80
2023-02-11T08:35:37.047Z,6.55
2023-02-11T08:38:03.773Z,6.25
2023-02-11T08:40:30.456Z,4.53
2023-02-11T08:42:57.237Z,5.70
2023-02-11T08:45:24.071Z,5.68
2023-02-11T08:47:51.119Z,5.47
2023-02-11T08:50:17.924Z,5.38
2023-02-11T08:52:44.700Z,6.15
2023-02-11T08:55:11.490Z,5.18
2023-02-11T08:57:38.213Z,5.50
2023-02-11T09:00:05.624Z,5.43
2023-02-11T09:02:32.378Z,4.57
2023-02-11T09:04:59.197Z,5.70
2023-02-11T09:07:25.999Z,3.97
2023-02-11T09:09:53.055Z,3.65
2023-02-11T09:12:19.966Z,4.20
2023-02-11T09:14:46.771Z,3.28
2023-02-11T09:17:13.534Z,3.70
2023-02-11T09:19:40.273Z,4.20
2023-02-11T09:22:07.022Z,3.58
2023-02-11T09:24:33.831Z,3.38
2023-02-11T09:27:00.619Z,3.38
2023-02-11T09:29:27.336Z,3.97
2023-02-11T09:31:54.126Z,4.32
2023-02-11T09:34:20.991Z,4.75
2023-02-11T09:36:47.868Z,3.80
2023-02-11T09:39:18.300Z,3.67
2023-02-11T09:42:06.109Z,4.00
2023-02-11T09:44:34.543Z,3.65
2023-02-11T09:47:25.261Z,4.35
2023-02-11T09:50:12.751Z,3.75
2023-02-11T09:52:54.181Z,4.78
2023-02-11T09:55:21.858Z,8.80
2023-02-11T09:57:48.618Z,3.05
2023-02-11T10:00:24.565Z,4.30
2023-02-11T10:03:15.750Z,3.88
2023-02-11T10:05:47.604Z,4.97
2023-02-11T10:08:19.426Z,3.85
2023-02-11T10:10:53.156Z,3.85
2023-02-11T10:13:35.189Z,3.65
2023-02-11T10:16:27.490Z,3.78
2023-02-11T10:19:24.522Z,3.70
2023-02-11T10:22:08.553Z,3.40
2023-02-11T10:24:35.488Z,3.88
2023-02-11T10:27:13.457Z,4.97
2023-02-11T10:29:50.141Z,4.00
2023-02-11T10:32:29.775Z,3.88
2023-02-11T10:34:58.563Z,4.50
2023-02-11T10:37:25.282Z,5.65
2023-02-11T10:39:52.176Z,4.32
2023-02-11T10:42:19.053Z,5.93
2023-02-11T10:44:59.644Z,4.03
2023-02-11T10:47:28.938Z,4.50
2023-02-11T10:49:55.965Z,5.50
2023-02-11T10:52:24.588Z,4.55
2023-02-11T10:54:58.235Z,4.60
2023-02-11T10:57:34.018Z,3.75
2023-02-11T11:00:05.398Z,3.65
2023-02-11T11:02:34.748Z,4.45
2023-02-11T11:05:07.311Z,3.22
2023-02-11T11:07:34.154Z,4.78
2023-02-11T11:10:11.959Z,3.45
2023-02-11T11:12:48.737Z,4.88
2023-02-11T11:15:29.660Z,3.42
2023-02-11T11:18:22.558Z,3.60
2023-02-11T11:21:00.763Z,4.03
2023-02-11T11:23:28.204Z,3.33
2023-02-11T11:26:04.096Z,4.00
2023-02-11T11:28:36.643Z,3.30
2023-02-11T11:31:03.806Z,3.55
2023-02-11T11:33:33.294Z,3.63
2023-02-11T11:36:01.559Z,4.15
2023-02-11T11:38:29.028Z,3.00
2023-02-11T11:41:19.751Z,3.40
2023-02-11T11:44:01.533Z,3.78
2023-02-11T11:46:30.919Z,3.20
2023-02-11T11:49:30.316Z,3.35
2023-02-11T11:52:08.889Z,3.38
2023-02-11T11:54:35.652Z,3.83
2023-02-11T11:57:17.254Z,3.00
2023-02-11T11:59:44.039Z,4.32
2023-02-11T12:02:35.809Z,3.88
2023-02-11T12:05:43.283Z,4.00
2023-02-11T12:08:36.122Z,2.72
2023-02-11T12:11:21.222Z,3.72
2023-02-11T12:14:12.382Z,2.50
2023-02-11T12:16:52.805Z,2.95
2023-02-11T12:19:26.694Z,3.10
2023-02-11T12:22:13.221Z,3.88
2023-02-11T12:24:47.141Z,3.80
2023-02-11T12:27:38.395Z,2.75
2023-02-11T12:30:29.367Z,2.80
2023-02-11T12:33:03.155Z,2.58
2023-02-11T12:35:48.235Z,3.47
2023-02-11T12:38:33.873Z,3.13
2023-02-11T12:41:19.054Z,2.63
2023-02-11T12:43:45.773Z,2.88
2023-02-11T12:46:37.287Z,3.00
2023-02-11T12:49:03.980Z,3.08
2023-02-11T12:52:04.626Z,2.80
2023-02-11T12:55:05.919Z,2.80
2023-02-11T12:57:32.726Z,2.90
2023-02-11T13:00:25.446Z,2.80
2023-02-11T13:03:06.100Z,3.00
2023-02-11T13:05:49.502Z,4.75
2023-02-11T13:08:21.117Z,2.75
2023-02-11T13:10:49.599Z,3.00
2023-02-11T13:13:23.545Z,2.08
2023-02-11T13:16:07.705Z,2.55
2023-02-11T13:18:55.282Z,2.25
2023-02-11T13:21:56.021Z,3.47
2023-02-11T13:24:37.118Z,3.70
2023-02-11T13:27:32.721Z,2.53
2023-02-11T13:30:20.380Z,2.20
2023-02-11T13:32:56.388Z,2.58
2023-02-11T13:35:30.076Z,2.38
2023-02-11T13:37:57.805Z,2.45
2023-02-11T13:40:28.687Z,2.58
2023-02-11T13:42:59.591Z,2.17
2023-02-11T13:45:48.515Z,2.70
2023-02-11T13:48:24.100Z,2.50
2023-02-11T13:50:52.891Z,4.72
2023-02-11T13:53:19.846Z,3.22
2023-02-11T13:55:48.133Z,3.47
2023-02-11T13:58:17.358Z,4.35
2023-02-11T14:00:51.442Z,3.25
2023-02-11T14:03:56.464Z,3.42
2023-02-11T14:06:46.555Z,3.55
2023-02-11T14:09:13.214Z,2.55
2023-02-11T14:11:55.443Z,3.15
2023-02-11T14:14:23.796Z,2.50
2023-02-11T14:17:00.195Z,2.20
2023-02-11T14:19:37.623Z,3.38
2023-02-11T14:22:10.555Z,2.50
2023-02-11T14:24:37.269Z,2.30
2023-02-11T14:27:23.193Z,1.90
2023-02-11T14:30:15.078Z,2.28
2023-02-11T14:32:56.817Z,2.70
2023-02-11T14:35:38.674Z,2.83
2023-02-11T14:38:23.549Z,3.25
2023-02-11T14:41:01.505Z,2.10
2023-02-11T14:43:31.367Z,2.00
2023-02-11T14:45:58.072Z,2.70
2023-02-11T14:48:32.939Z,2.35
2023-02-11T14:51:03.353Z,3.08
2023-02-11T14:53:30.921Z,2.65
2023-02-11T14:55:57.735Z,2.10
2023-02-11T14:58:29.504Z,2.80
2023-02-11T15:01:08.940Z,3.67
2023-02-11T15:03:43.007Z,1.83
2023-02-11T15:06:21.268Z,1.80
2023-02-11T15:09:16.925Z,2.30
2023-02-11T15:11:45.289Z,2.22
2023-02-11T15:14:32.296Z,2.33
2023-02-11T15:17:02.322Z,3.92
2023-02-11T15:19:32.357Z,2.20
2023-02-11T15:22:00.616Z,2.60
2023-02-11T15:24:31.738Z,2.40
2023-02-11T15:27:21.065Z,2.40
2023-02-11T15:29:49.478Z,3.15
2023-02-11T15:32:18.234Z,3.20
2023-02-11T15:34:45.642Z,4.43
2023-02-11T15:37:14.464Z,4.65
2023-02-11T15:39:42.114Z,2.88
2023-02-11T15:42:28.948Z,4.00
2023-02-11T15:45:31.625Z,5.60
2023-02-11T15:48:47.699Z,3.65
2023-02-11T15:51:25.786Z,4.47
2023-02-11T15:53:56.862Z,3.83
2023-02-11T15:56:32.993Z,4.03
2023-02-11T15:59:01.011Z,3.83
2023-02-11T16:01:34.939Z,3.15
2023-02-11T16:04:01.927Z,3.60
2023-02-11T16:06:40.587Z,3.50
2023-02-11T16:09:10.982Z,3.65
2023-02-11T16:11:47.563Z,3.38
2023-02-11T16:14:23.192Z,4.68
2023-02-11T16:17:02.781Z,4.30
2023-02-11T16:19:29.546Z,4.28
2023-02-11T16:21:56.977Z,7.30
2023-02-11T16:24:31.928Z,2.80
2023-02-11T16:27:03.372Z,3.83
2023-02-11T16:29:35.331Z,6.00
2023-02-11T16:32:09.982Z,3.75
2023-02-11T16:34:36.802Z,3.97
2023-02-11T16:37:04.653Z,2.97
2023-02-11T16:39:31.485Z,3.72
2023-02-11T16:41:58.501Z,2.80
2023-02-11T16:44:25.318Z,3.88
2023-02-11T16:46:52.577Z,3.55
2023-02-11T16:49:30.476Z,5.00
2023-02-11T16:52:01.232Z,3.83
2023-02-11T16:54:28.582Z,4.72
2023-02-11T16:56:55.326Z,4.25
2023-02-11T16:59:22.004Z,3.60
2023-02-11T17:01:48.760Z,4.18
2023-02-11T17:04:41.959Z,4.45
2023-02-11T17:07:08.664Z,4.95
2023-02-11T17:09:35.431Z,3.63
2023-02-11T17:12:02.202Z,3.83
2023-02-11T17:14:28.999Z,5.90
2023-02-11T17:16:56.190Z,6.88
2023-02-11T17:19:22.984Z,4.90
2023-02-11T17:21:51.156Z,3.85
2023-02-11T17:24:18.255Z,4.35
2023-02-11T17:26:45.378Z,4.07
2023-02-11T17:29:17.277Z,4.18
2023-02-11T17:31:44.234Z,4.07
2023-02-11T17:34:11.233Z,4.00
2023-02-11T17:36:37.958Z,3.63
2023-02-11T17:39:08.035Z,6.55
2023-02-11T17:41:37.051Z,5.15
2023-02-11T17:44:03.936Z,5.87
2023-02-11T17:46:32.059Z,6.40
2023-02-11T17:48:58.902Z,4.63
2023-02-11T17:51:30.507Z,5.50
2023-02-11T17:53:58.671Z,4.47
2023-02-11T17:56:25.608Z,4.93
2023-02-11T17:58:53.186Z,4.47
2023-02-11T18:01:20.398Z,7.53
2023-02-11T18:03:47.275Z,4.97
2023-02-11T18:06:14.211Z,5.05
2023-02-11T18:08:42.981Z,5.07
2023-02-11T18:11:11.042Z,6.30
2023-02-11T18:13:37.796Z,5.60
2023-02-11T18:16:05.210Z,5.72
2023-02-11T18:18:32.183Z,8.13
2023-02-11T18:20:59.642Z,6.28
2023-02-11T18:23:26.690Z,5.50
2023-02-11T18:25:53.717Z,6.30
2023-02-11T18:28:20.587Z,5.72
2023-02-11T18:30:47.439Z,5.55
2023-02-11T18:33:14.585Z,4.82
2023-02-11T18:35:42.015Z,6.68
2023-02-11T18:38:09.493Z,8.52
2023-02-11T18:40:39.896Z,7.75
2023-02-11T18:43:07.373Z,6.05
2023-02-11T18:45:34.299Z,6.53
2023-02-11T18:48:03.663Z,5.65
2023-02-11T18:50:30.341Z,4.60
2023-02-11T18:52:57.183Z,5.90
2023-02-11T18:55:25.930Z,5.50
2023-02-11T18:57:52.952Z,4.40
2023-02-11T19:00:20.581Z,4.07
2023-02-11T19:02:47.388Z,6.28
2023-02-11T19:05:14.165Z,4.55
2023-02-11T19:07:40.902Z,4.70
2023-02-11T19:10:09.224Z,3.80
2023-02-11T19:12:36.007Z,5.13
2023-02-11T19:15:02.862Z,4.20
2023-02-11T19:17:29.660Z,4.60
2023-02-11T19:19:56.465Z,6.55
2023-02-11T19:22:23.193Z,4.97
2023-02-11T19:24:50.048Z,5.75
2023-02-11T19:27:16.747Z,5.80
2023-02-11T19:29:43.494Z,6.85
2023-02-11T19:32:10.601Z,6.65
2023-02-11T19:34:41.230Z,7.45
2023-02-11T19:37:10.808Z,5.55
2023-02-11T19:39:37.576Z,6.25
2023-02-11T19:42:04.485Z,8.90
2023-02-11T19:44:31.202Z,6.85
2023-02-11T19:46:58.022Z,7.82
2023-02-11T19:49:26.351Z,7.65
2023-02-11T19:51:54.195Z,11.48
2023-02-11T19:54:21.253Z,6.18
2023-02-11T19:56:48.754Z,5.00
2023-02-11T19:59:15.597Z,4.88
2023-02-11T20:01:42.375Z,6.50
2023-02-11T20:04:09.352Z,5.38
2023-02-11T20:06:36.458Z,6.70
2023-02-11T20:09:06.520Z,6.13
2023-02-11T20:11:33.822Z,7.43
2023-02-11T20:14:00.748Z,6.53
2023-02-11T20:16:44.588Z,6.05
2023-02-11T20:19:17.804Z,5.75
2023-02-11T20:21:47.051Z,7.43
2023-02-11T20:24:14.507Z,4.90
2023-02-11T20:26:42.567Z,5.50
2023-02-11T20:29:09.516Z,5.50
2023-02-11T20:31:36.446Z,5.80
2023-02-11T20:34:03.500Z,9.02
2023-02-11T20:36:32.321Z,8.10
2023-02-11T20:38:59.674Z,7.40
2023-02-11T20:41:32.681Z,11.30
2023-02-11T20:44:01.102Z,9.43
2023-02-11T20:46:29.098Z,9.70
2023-02-11T20:48:56.129Z,11.68
2023-02-11T20:51:27.619Z,8.25
2023-02-11T20:53:54.378Z,7.63
2023-02-11T20:56:23.466Z,6.00
2023-02-11T20:58:50.284Z,7.15
2023-02-11T21:01:19.007Z,4.97
2023-02-11T21:03:49.798Z,5.05
2023-02-11T21:06:16.924Z,4.70
2023-02-11T21:08:43.657Z,4.25
2023-02-11T21:11:10.975Z,4.60
2023-02-11T21:13:38.051Z,4.75
2023-02-11T21:16:05.128Z,6.28
2023-02-11T21:18:32.117Z,4.22
2023-02-11T21:20:58.954Z,6.68
2023-02-11T21:23:25.780Z,4.22
2023-02-11T21:25:55.901Z,4.93
2023-02-11T21:28:26.182Z,4.10
2023-02-11T21:30:54.081Z,4.93
2023-02-11T21:33:21.231Z,4.10
2023-02-11T21:35:48.127Z,4.55
2023-02-11T21:38:14.917Z,4.40
2023-02-11T21:40:41.661Z,6.00
2023-02-11T21:43:08.421Z,5.65
2023-02-11T21:45:35.142Z,9.52
2023-02-11T21:48:01.954Z,7.10
2023-02-11T21:50:28.671Z,6.50
2023-02-11T21:52:55.361Z,6.72
2023-02-11T21:55:22.071Z,7.30
2023-02-11T21:57:48.822Z,8.60
2023-02-11T22:00:16.344Z,7.32
2023-02-11T22:02:43.209Z,6.72
2023-02-11T22:05:10.044Z,7.03
2023-02-11T22:07:36.804Z,10.20
2023-02-11T22:10:04.292Z,6.55
2023-02-11T22:12:31.095Z,7.35
2023-02-11T22:14:57.832Z,7.35
2023-02-11T22:17:24.747Z,8.55
2023-02-11T22:19:51.517Z,11.00
2023-02-11T22:22:18.331Z,8.98
2023-02-11T22:24:45.999Z,9.38
2023-02-11T22:27:13.643Z,6.95
2023-02-11T22:29:40.466Z,7.90
2023-02-11T22:32:07.375Z,8.05
2023-02-11T22:34:34.114Z,8.57
2023-02-11T22:37:02.335Z,9.70
2023-02-11T22:39:29.357Z,10.30
2023-02-11T22:41:57.508Z,8.45
2023-02-11T22:44:24.476Z,6.85
2023-02-11T22:46:51.946Z,9.27
2023-02-11T22:49:19.882Z,7.00
2023-02-11T22:51:46.810Z,5.97
2023-02-11T22:54:15.395Z,7.80
2023-02-11T22:56:42.374Z,5.63
2023-02-11T22:59:11.824Z,6.65
2023-02-11T23:01:38.614Z,5.97
2023-02-11T23:04:06.979Z,4.90
2023-02-11T23:06:33.852Z,5.70
2023-02-11T23:09:00.694Z,6.95
2023-02-11T23:11:28.656Z,4.47
2023-02-11T23:13:56.073Z,4.82
2023-02-11T23:16:27.985Z,6.68
2023-02-11T23:18:54.991Z,6.40
2023-02-11T23:21:27.386Z,5.20
2023-02-11T23:23:55.626Z,6.72
2023-02-11T23:26:22.310Z,5.35
2023-02-11T23:28:49.070Z,5.70
2023-02-11T23:31:24.380Z,5.47
2023-02-11T23:33:51.288Z,6.00
2023-02-11T23:36:18.580Z,6.85
2023-02-11T23:38:45.548Z,6.72
2023-02-11T23:41:12.476Z,5.60
2023-02-11T23:43:39.347Z,7.45
2023-02-11T23:46:06.497Z,5.35
2023-02-11T23:48:33.889Z,4.55
2023-02-11T23:51:00.599Z,5.28
2023-02-11T23:53:27.323Z,5.55
2023-02-11T23:55:54.276Z,5.10
2023-02-11T23:58:21.232Z,5.30
